Finlandia — OJPP — position and weather

sailwx.info

Track history (hours):
 
Tides and Currents Weather Stations Pressure Air Temp Water Temp Dewpoint Dewpoint Depression Visibility Wind Speed Wind Dir Waves Ship Positions

Finlandia

Last reported at 2018-Feb-19 04:00 UTC. Time now 2018-Feb-19 04:21 UTC.
Position N 59°27' E 024°47'.

Length 175 m; draft 7 m.

Type: Passenger vessel. MMSI: 230628000.

Date/timePositionNaut miles runAvg speedWind from/ knotsBaromVisibWave heightAir tempDewpointWater temp
2018-Feb-19 04:00N 59°27' E 024°47'0 0.8
2018-Feb-19 03:30N 59°27' E 024°46'0 0.0
2018-Feb-19 03:00N 59°27' E 024°46'0 0.0
2018-Feb-19 02:28N 59°27' E 024°46'0 0.0
2018-Feb-19 02:01N 59°27' E 024°46'0 0.0
2018-Feb-19 01:30N 59°27' E 024°46'0 0.0
2018-Feb-19 01:00N 59°27' E 024°46'0 0.0
2018-Feb-19 00:30N 59°27' E 024°46'0 0.0
2018-Feb-19 00:00N 59°27' E 024°46'0 0.0
2018-Feb-18 23:30N 59°27' E 024°46'0 0.0
2018-Feb-18 23:00N 59°27' E 024°46'0 0.0
2018-Feb-18 22:30N 59°27' E 024°46'0 0.0
2018-Feb-18 22:00N 59°27' E 024°46'2 4.4
2018-Feb-18 21:30N 59°29' E 024°46'1223.7
2018-Feb-18 21:01N 59°40' E 024°40'1224.4
2018-Feb-18 20:30N 59°52' E 024°49'1223.8
2018-Feb-18 20:00N 60°03' E 024°54'611.3
2018-Feb-18 19:31N 60°09' E 024°55'0 0.0
2018-Feb-18 19:01N 60°09' E 024°55'3 5.2
2018-Feb-18 18:30N 60°06' E 024°54'1121.8
2018-Feb-18 18:01N 59°56' E 024°53'1122.3
2018-Feb-18 17:31N 59°45' E 024°46'1121.8
2018-Feb-18 17:00N 59°34' E 024°43'815.2
2018-Feb-18 16:30N 59°27' E 024°46'0 0.6
2018-Feb-18 16:00N 59°27' E 024°46'0 0.0
2018-Feb-18 15:30N 59°27' E 024°46'511.0
2018-Feb-18 15:01N 59°32' E 024°43'1019.8
2018-Feb-18 14:31N 59°42' E 024°45'1121.2
2018-Feb-18 14:00N 59°52' E 024°50'1121.5
2018-Feb-18 13:30N 60°03' E 024°54'612.7
2018-Feb-18 13:00N 60°09' E 024°55'0 0.0
2018-Feb-18 12:28N 60°09' E 024°55'1 1.5
2018-Feb-18 12:01N 60°08' E 024°54'1020.2
2018-Feb-18 11:31N 59°58' E 024°54'1224.2
2018-Feb-18 11:01N 59°47' E 024°45'1224.2
2018-Feb-18 10:31N 59°35' E 024°42'917.5
2018-Feb-18 10:00N 59°27' E 024°46'0 0.2
2018-Feb-18 09:28N 59°27' E 024°46'1 1.5
2018-Feb-18 09:01N 59°27' E 024°47'1020.3
2018-Feb-18 08:31N 59°37' E 024°40'1121.4
2018-Feb-18 08:00N 59°47' E 024°48'1121.5
2018-Feb-18 07:30N 59°57' E 024°53'1019.6
2018-Feb-18 07:00N 60°07' E 024°54'2 4.3
2018-Feb-18 06:29N 60°09' E 024°55'0 0.0
2018-Feb-18 05:59N 60°09' E 024°55'0 0.0
2018-Feb-18 05:29N 60°09' E 024°55'0 0.0
2018-Feb-18 04:59N 60°09' E 024°55'0 0.0
2018-Feb-18 04:29N 60°09' E 024°55'0 0.0
2018-Feb-18 03:59N 60°09' E 024°55'0 0.0
2018-Feb-18 03:29N 60°09' E 024°55'0 0.0
2018-Feb-18 02:59N 60°09' E 024°55'0 0.0
2018-Feb-18 02:29N 60°09' E 024°55'0 0.0
2018-Feb-18 01:59N 60°09' E 024°55'0 0.0
2018-Feb-18 01:29N 60°09' E 024°55'0 0.0
2018-Feb-18 00:59N 60°09' E 024°55'0 0.0
2018-Feb-18 00:29N 60°09' E 024°55'0 0.0
2018-Feb-17 23:59N 60°09' E 024°55'0 0.0
2018-Feb-17 23:29N 60°09' E 024°55'0 0.0
2018-Feb-17 22:56N 60°09' E 024°55'0 0.0
2018-Feb-17 22:29N 60°09' E 024°55'0 0.0
2018-Feb-17 21:59N 60°09' E 024°55'0 0.0
2018-Feb-17 21:29N 60°09' E 024°55'0 0.0
2018-Feb-17 20:59N 60°09' E 024°55'0 0.0
2018-Feb-17 20:29N 60°09' E 024°55'0 0.0
2018-Feb-17 19:59N 60°09' E 024°55'0 0.0
2018-Feb-17 19:29N 60°09' E 024°55'0 0.0
2018-Feb-17 19:00N 60°09' E 024°55'4 8.4
2018-Feb-17 18:30N 60°05' E 024°54'1020.5
2018-Feb-17 18:01N 59°55' E 024°53'1121.0
2018-Feb-17 17:31N 59°45' E 024°47'1020.6
2018-Feb-17 17:01N 59°35' E 024°42'816.0
2018-Feb-17 16:30N 59°27' E 024°46'0 0.7
2018-Feb-17 16:00N 59°27' E 024°46'0 0.0
2018-Feb-17 15:30N 59°27' E 024°46'713.0
2018-Feb-17 15:00N 59°33' E 024°42'1020.4
2018-Feb-17 14:30N 59°43' E 024°46'1122.4
2018-Feb-17 14:01N 59°54' E 024°52'1122.8
2018-Feb-17 13:31N 60°05' E 024°54'4 7.4
2018-Feb-17 12:58N 60°09' E 024°55'0 0.0
2018-Feb-17 12:28N 60°09' E 024°55'0 1.0
2018-Feb-17 12:01N 60°09' E 024°54'1020.1
2018-Feb-17 11:30N 59°59' E 024°54'1325.4
2018-Feb-17 11:01N 59°47' E 024°45'1224.8
2018-Feb-17 10:31N 59°35' E 024°42'816.2
2018-Feb-17 10:00N 59°27' E 024°46'0 0.0
2018-Feb-17 09:28N 59°27' E 024°46'1 1.4
2018-Feb-17 09:01N 59°27' E 024°47'1019.9
2018-Feb-17 08:30N 59°36' E 024°40'1121.7
2018-Feb-17 08:01N 59°46' E 024°48'1122.0
2018-Feb-17 07:30N 59°57' E 024°53'1121.7
2018-Feb-17 07:00N 60°08' E 024°54'1 1.8
2018-Feb-17 06:28N 60°09' E 024°55'0 0.5
2018-Feb-17 06:00N 60°09' E 024°55'816.2
2018-Feb-17 05:31N 60°01' E 024°55'1223.2
2018-Feb-17 05:01N 59°49' E 024°51'1223.4
2018-Feb-17 04:31N 59°38' E 024°42'1121.7
2018-Feb-17 04:00N 59°28' E 024°46'1 1.6
2018-Feb-17 03:28N 59°27' E 024°46'0 0.0
2018-Feb-17 02:58N 59°27' E 024°46'0 0.0
2018-Feb-17 02:28N 59°27' E 024°46'0 0.0
2018-Feb-17 01:58N 59°27' E 024°46'0 0.0
2018-Feb-17 01:28N 59°27' E 024°46'0 0.0
2018-Feb-17 00:58N 59°27' E 024°46'0 0.0
2018-Feb-17 00:28N 59°27' E 024°46'0 0.0
2018-Feb-16 23:58N 59°27' E 024°46'0 0.0
2018-Feb-16 23:30N 59°27' E 024°46'0 0.0
2018-Feb-16 22:58N 59°27' E 024°46'0 0.0
2018-Feb-16 22:28N 59°27' E 024°46'0 0.0
2018-Feb-16 21:58N 59°27' E 024°46'4 8.4
2018-Feb-16 21:31N 59°30' E 024°44'1325.0
2018-Feb-16 21:01N 59°43' E 024°42'1326.2
2018-Feb-16 20:31N 59°55' E 024°52'1223.8
2018-Feb-16 20:00N 60°07' E 024°54'2 4.4
2018-Feb-16 19:30N 60°09' E 024°55'0 0.0
2018-Feb-16 19:00N 60°09' E 024°55'3 5.2
2018-Feb-16 18:31N 60°07' E 024°54'1019.8
2018-Feb-16 18:00N 59°57' E 024°53'1121.5
2018-Feb-16 17:30N 59°46' E 024°48'1121.5
2018-Feb-16 17:01N 59°36' E 024°41'918.9
2018-Feb-16 16:31N 59°27' E 024°47'0 0.9
2018-Feb-16 16:00N 59°27' E 024°46'0 0.0
2018-Feb-16 15:30N 59°27' E 024°46'713.9
2018-Feb-16 15:01N 59°33' E 024°42'1122.6
2018-Feb-16 14:31N 59°44' E 024°47'1224.2
2018-Feb-16 14:00N 59°56' E 024°53'1122.0
2018-Feb-16 13:30N 60°07' E 024°54'2 3.8
2018-Feb-16 12:58N 60°09' E 024°55'0 0.0
2018-Feb-16 12:28N 60°09' E 024°55'1 1.1
2018-Feb-16 12:01N 60°09' E 024°55'1021.0
2018-Feb-16 11:31N 59°58' E 024°54'1326.4
2018-Feb-16 11:01N 59°46' E 024°44'1326.1
2018-Feb-16 10:30N 59°33' E 024°44'612.1
2018-Feb-16 10:00N 59°27' E 024°46'0 0.0
2018-Feb-16 09:30N 59°27' E 024°46'2 3.4
2018-Feb-16 09:00N 59°28' E 024°46'1223.5
2018-Feb-16 08:31N 59°40' E 024°43'1224.5
2018-Feb-16 08:00N 59°52' E 024°50'1224.8
2018-Feb-16 07:30N 60°04' E 024°53'5 9.0
2018-Feb-16 06:57N 60°09' E 024°55'0 0.0
2018-Feb-16 06:30N 60°09' E 024°55'0 0.6
2018-Feb-16 06:00N 60°09' E 024°55'714.3
2018-Feb-16 05:31N 60°01' E 024°55'1223.7
2018-Feb-16 05:01N 59°50' E 024°48'1223.2
2018-Feb-16 04:31N 59°39' E 024°41'1122.6
2018-Feb-16 04:01N 59°28' E 024°46'1 2.6
2018-Feb-16 03:29N 59°27' E 024°46'0 0.0
2018-Feb-16 02:58N 59°27' E 024°46'0 0.0
2018-Feb-16 02:28N 59°27' E 024°46'0 0.0
2018-Feb-16 01:58N 59°27' E 024°46'0 0.0
2018-Feb-16 01:28N 59°27' E 024°46'0 0.0
2018-Feb-16 00:58N 59°27' E 024°46'0 0.0
2018-Feb-16 00:28N 59°27' E 024°46'0 0.0
2018-Feb-15 23:58N 59°27' E 024°46'0 0.0
2018-Feb-15 23:28N 59°27' E 024°46'0 0.0
2018-Feb-15 22:58N 59°27' E 024°46'0 0.0
2018-Feb-15 22:28N 59°27' E 024°46'0 0.0
2018-Feb-15 22:00N 59°27' E 024°46'714.4
2018-Feb-15 21:30N 59°34' E 024°42'1223.4
2018-Feb-15 21:01N 59°45' E 024°47'1325.2
2018-Feb-15 20:31N 59°57' E 024°53'1121.6
2018-Feb-15 20:01N 60°08' E 024°54'1 2.4
2018-Feb-15 19:30N 60°09' E 024°55'0 0.0
2018-Feb-15 19:00N 60°09' E 024°55'3 5.0
2018-Feb-15 18:30N 60°07' E 024°54'1019.6
2018-Feb-15 18:00N 59°57' E 024°56'1121.5
2018-Feb-15 17:30N 59°47' E 024°49'1121.9
2018-Feb-15 17:00N 59°37' E 024°41'1019.6
2018-Feb-15 16:30N 59°27' E 024°47'1 1.2
2018-Feb-15 16:00N 59°27' E 024°46'0 0.0
2018-Feb-15 15:30N 59°27' E 024°46'815.7
2018-Feb-15 15:01N 59°34' E 024°41'1122.1
2018-Feb-15 14:31N 59°45' E 024°47'1224.3
2018-Feb-15 14:00N 59°57' E 024°53'1121.7
2018-Feb-15 13:30N 60°07' E 024°54'2 3.3
2018-Feb-15 12:59N 60°09' E 024°55'0 0.0
2018-Feb-15 12:29N 60°09' E 024°55'1 1.6
2018-Feb-15 12:01N 60°08' E 024°54'1020.4
2018-Feb-15 11:31N 59°58' E 024°54'1224.2
2018-Feb-15 11:01N 59°47' E 024°45'1223.9
2018-Feb-15 10:31N 59°35' E 024°42'917.0
2018-Feb-15 10:00N 59°27' E 024°46'0 0.1
2018-Feb-15 09:29N 59°27' E 024°46'1 1.9
2018-Feb-15 09:01N 59°27' E 024°47'1020.9
2018-Feb-15 08:31N 59°37' E 024°40'1121.8
2018-Feb-15 08:01N 59°47' E 024°48'1122.9
2018-Feb-15 07:31N 59°58' E 024°53'1020.2
2018-Feb-15 07:00N 60°08' E 024°54'1 1.1
2018-Feb-15 06:23N 60°09' E 024°55'0 0.7
2018-Feb-15 06:00N 60°09' E 024°55'817.2
2018-Feb-15 05:31N 60°00' E 024°55'1223.7
2018-Feb-15 05:01N 59°49' E 024°48'1223.9
2018-Feb-15 04:31N 59°37' E 024°42'1121.2
2018-Feb-15 04:00N 59°27' E 024°47'1 1.2
2018-Feb-15 03:30N 59°27' E 024°46'0 0.0
2018-Feb-15 03:00N 59°27' E 024°46'0 0.0
2018-Feb-15 02:30N 59°27' E 024°46'0 0.0
2018-Feb-15 02:00N 59°27' E 024°46'0 0.0
2018-Feb-15 01:30N 59°27' E 024°46'0 0.0
2018-Feb-15 01:00N 59°27' E 024°46'0 0.0
2018-Feb-15 00:30N 59°27' E 024°46'0 0.0
2018-Feb-15 00:00N 59°27' E 024°46'0 0.0
2018-Feb-14 23:30N 59°27' E 024°46'0 0.0
2018-Feb-14 23:00N 59°27' E 024°46'0 0.0
2018-Feb-14 22:30N 59°27' E 024°46'0 0.0
2018-Feb-14 22:00N 59°27' E 024°46'4 7.4
2018-Feb-14 21:31N 59°30' E 024°44'1122.2
2018-Feb-14 21:01N 59°41' E 024°41'1122.6
2018-Feb-14 20:31N 59°52' E 024°48'1122.3
2018-Feb-14 20:00N 60°03' E 024°54'612.9
2018-Feb-14 19:30N 60°09' E 024°55'0 0.0
2018-Feb-14 18:58N 60°09' E 024°55'3 5.9
2018-Feb-14 18:30N 60°06' E 024°54'1019.9
2018-Feb-14 18:00N 59°56' E 024°54'1121.6
2018-Feb-14 17:31N 59°46' E 024°48'1121.6
2018-Feb-14 17:00N 59°36' E 024°41'918.4
2018-Feb-14 16:30N 59°27' E 024°47'0 1.0
2018-Feb-14 15:59N 59°27' E 024°46'0 0.0
2018-Feb-14 15:30N 59°27' E 024°46'714.5
2018-Feb-14 15:01N 59°34' E 024°42'1121.4
2018-Feb-14 14:31N 59°44' E 024°47'1122.5
2018-Feb-14 14:01N 59°55' E 024°52'1121.7
2018-Feb-14 13:31N 60°06' E 024°54'3 6.4
2018-Feb-14 12:58N 60°09' E 024°55'0 0.0
2018-Feb-14 12:28N 60°09' E 024°55'0 1.0
2018-Feb-14 12:00N 60°09' E 024°54'917.8
2018-Feb-14 11:31N 59°60' E 024°55'1325.3
2018-Feb-14 11:01N 59°48' E 024°46'1225.0
2018-Feb-14 10:31N 59°36' E 024°41'918.5
2018-Feb-14 10:00N 59°27' E 024°46'0 0.4
2018-Feb-14 09:30N 59°27' E 024°46'0 1.0
2018-Feb-14 09:00N 59°27' E 024°47'1020.0
2018-Feb-14 08:31N 59°36' E 024°40'1122.6
2018-Feb-14 08:01N 59°47' E 024°48'1223.1
2018-Feb-14 07:30N 59°58' E 024°53'1020.4
2018-Feb-14 07:00N 60°08' E 024°54'1 1.7
2018-Feb-14 06:29N 60°09' E 024°55'0 0.9
2018-Feb-14 06:00N 60°09' E 024°55'917.2
2018-Feb-14 05:30N 60°00' E 024°55'1224.0
2018-Feb-14 05:01N 59°49' E 024°49'1223.9
2018-Feb-14 04:31N 59°37' E 024°42'1020.8
2018-Feb-14 04:01N 59°27' E 024°47'1 1.2
2018-Feb-14 03:28N 59°27' E 024°46'0 0.0
2018-Feb-14 03:01N 59°27' E 024°46'0 0.0
2018-Feb-14 02:28N 59°27' E 024°46'0 0.0
2018-Feb-14 01:57N 59°27' E 024°46'0 0.0
2018-Feb-14 01:28N 59°27' E 024°46'0 0.0
2018-Feb-14 01:01N 59°27' E 024°46'0 0.0
2018-Feb-14 00:28N 59°27' E 024°46'0 0.0
2018-Feb-14 00:00N 59°27' E 024°46'0 0.0
2018-Feb-13 23:30N 59°27' E 024°46'0 0.0
2018-Feb-13 23:01N 59°27' E 024°46'0 0.0
2018-Feb-13 22:28N 59°27' E 024°46'0 0.0
2018-Feb-13 21:58N 59°27' E 024°46'2 4.7
2018-Feb-13 21:31N 59°29' E 024°46'1122.0
2018-Feb-13 21:01N 59°40' E 024°42'1223.3
2018-Feb-13 20:31N 59°51' E 024°50'1223.4
2018-Feb-13 20:01N 60°02' E 024°54'713.7
2018-Feb-13 19:31N 60°09' E 024°55'0 0.0
2018-Feb-13 19:00N 60°09' E 024°55'3 6.6
2018-Feb-13 18:30N 60°06' E 024°54'1121.7
2018-Feb-13 18:01N 59°55' E 024°52'1223.6
2018-Feb-13 17:31N 59°44' E 024°47'1122.1
2018-Feb-13 17:01N 59°33' E 024°44'612.0
2018-Feb-13 16:30N 59°27' E 024°46'0 0.0
2018-Feb-13 15:59N 59°27' E 024°46'0 0.0
2018-Feb-13 15:31N 59°27' E 024°46'713.3
2018-Feb-13 15:00N 59°33' E 024°42'1121.3
2018-Feb-13 14:30N 59°44' E 024°42'1122.0
2018-Feb-13 14:00N 59°54' E 024°52'1121.4
2018-Feb-13 13:30N 60°04' E 024°54'5 9.6
2018-Feb-13 13:00N 60°09' E 024°55'0 0.0
2018-Feb-13 12:30N 60°09' E 024°55'0 0.9
2018-Feb-13 12:00N 60°09' E 024°54'918.0
2018-Feb-13 11:31N 59°60' E 024°54'1224.9
2018-Feb-13 11:01N 59°48' E 024°49'1325.1
2018-Feb-13 10:30N 59°36' E 024°41'918.3
2018-Feb-13 10:00N 59°27' E 024°46'0 0.4
2018-Feb-13 09:27N 59°27' E 024°46'1 1.4
2018-Feb-13 09:00N 59°27' E 024°47'1020.6
2018-Feb-13 08:31N 59°37' E 024°40'1223.1
2018-Feb-13 08:00N 59°47' E 024°49'1223.2
2018-Feb-13 07:30N 59°59' E 024°54'1019.8
2018-Feb-13 07:01N 60°09' E 024°54'1 1.2
2018-Feb-13 06:30N 60°09' E 024°55'0 0.8
2018-Feb-13 06:00N 60°09' E 024°55'816.9
2018-Feb-13 05:30N 60°01' E 024°55'1224.1
2018-Feb-13 05:01N 59°49' E 024°50'1224.1
2018-Feb-13 04:30N 59°37' E 024°42'1121.2
2018-Feb-13 04:00N 59°27' E 024°47'1 1.2
2018-Feb-13 03:29N 59°27' E 024°46'0 0.0
2018-Feb-13 02:59N 59°27' E 024°46'0 0.0
2018-Feb-13 02:29N 59°27' E 024°46'0 0.0
2018-Feb-13 01:59N 59°27' E 024°46'0 0.0
2018-Feb-13 01:29N 59°27' E 024°46'0 0.0
2018-Feb-13 00:59N 59°27' E 024°46'0 0.0
2018-Feb-13 00:29N 59°27' E 024°46'0 0.0
2018-Feb-12 23:59N 59°27' E 024°46'0 0.0
2018-Feb-12 23:29N 59°27' E 024°46'0 0.0
2018-Feb-12 22:59N 59°27' E 024°46'0 0.0
2018-Feb-12 22:29N 59°27' E 024°46'0 0.0
2018-Feb-12 21:59N 59°27' E 024°46'3 5.5
2018-Feb-12 21:31N 59°29' E 024°45'1122.4
2018-Feb-12 21:01N 59°40' E 024°43'1224.1
2018-Feb-12 20:31N 59°52' E 024°51'1224.1
2018-Feb-12 20:00N 60°04' E 024°54'510.6
2018-Feb-12 19:30N 60°09' E 024°55'0 0.0
2018-Feb-12 19:01N 60°09' E 024°55'2 4.8
2018-Feb-12 18:30N 60°07' E 024°54'1020.2
2018-Feb-12 18:00N 59°57' E 024°54'1122.2
2018-Feb-12 17:30N 59°46' E 024°48'1122.1
2018-Feb-12 17:00N 59°35' E 024°42'917.5
2018-Feb-12 16:31N 59°27' E 024°46'0 0.4
2018-Feb-12 16:00N 59°27' E 024°46'0 0.0
2018-Feb-12 15:30N 59°27' E 024°46'611.9
2018-Feb-12 15:01N 59°32' E 024°43'1019.5
2018-Feb-12 14:31N 59°42' E 024°45'1121.5
2018-Feb-12 14:00N 59°53' E 024°51'1121.3
2018-Feb-12 13:31N 60°03' E 024°54'612.2
2018-Feb-12 13:01N 60°09' E 024°55'0 0.0
2018-Feb-12 12:27N 60°09' E 024°55'0 1.0
2018-Feb-12 12:00N 60°09' E 024°55'1019.1
2018-Feb-12 11:30N 59°59' E 024°54'1223.5
2018-Feb-12 11:01N 59°48' E 024°45'1223.5
2018-Feb-12 10:31N 59°37' E 024°41'1020.3
2018-Feb-12 10:01N 59°27' E 024°47'1 1.1
2018-Feb-12 09:29N 59°27' E 024°46'0 0.7
2018-Feb-12 09:00N 59°27' E 024°46'1019.6
2018-Feb-12 08:31N 59°36' E 024°40'1223.6
2018-Feb-12 08:01N 59°48' E 024°45'1224.2
2018-Feb-12 07:31N 59°59' E 024°54'1019.9
2018-Feb-12 07:00N 60°09' E 024°55'0 0.6
2018-Feb-12 06:29N 60°09' E 024°55'1 1.5
2018-Feb-12 06:01N 60°08' E 024°54'1020.1
2018-Feb-12 05:31N 59°58' E 024°54'1223.6
2018-Feb-12 05:01N 59°47' E 024°49'1223.5
2018-Feb-12 04:31N 59°36' E 024°42'918.3
2018-Feb-12 04:00N 59°27' E 024°46'0 0.7
2018-Feb-12 03:28N 59°27' E 024°46'0 0.0
2018-Feb-12 02:58N 59°27' E 024°46'0 0.0
2018-Feb-12 02:28N 59°27' E 024°46'0 0.0
2018-Feb-12 01:58N 59°27' E 024°46'0 0.0
2018-Feb-12 01:28N 59°27' E 024°46'0 0.0
2018-Feb-12 00:58N 59°27' E 024°46'0 0.0
2018-Feb-12 00:28N 59°27' E 024°46'0 0.0
2018-Feb-11 23:58N 59°27' E 024°46'0 0.0
2018-Feb-11 23:28N 59°27' E 024°46'0 0.0
2018-Feb-11 22:58N 59°27' E 024°46'0 0.0
2018-Feb-11 22:28N 59°27' E 024°46'0 0.0
2018-Feb-11 21:58N 59°27' E 024°46'2 5.5
2018-Feb-11 21:31N 59°29' E 024°45'1122.4
2018-Feb-11 21:01N 59°40' E 024°43'1223.9
2018-Feb-11 20:30N 59°52' E 024°51'1223.6
2018-Feb-11 20:01N 60°03' E 024°54'611.5
2018-Feb-11 19:30N 60°09' E 024°55'0 0.0
2018-Feb-11 19:00N 60°09' E 024°55'3 7.1
2018-Feb-11 18:30N 60°06' E 024°54'1019.8
2018-Feb-11 18:00N 59°56' E 024°53'1020.2
2018-Feb-11 17:31N 59°46' E 024°48'1020.8
2018-Feb-11 17:01N 59°36' E 024°41'1019.4
2018-Feb-11 16:31N 59°27' E 024°46'0 0.7
2018-Feb-11 15:58N 59°27' E 024°46'0 0.0
2018-Feb-11 15:29N 59°27' E 024°46'612.0
2018-Feb-11 15:01N 59°32' E 024°43'1019.4
2018-Feb-11 14:30N 59°42' E 024°45'1020.1
2018-Feb-11 14:00N 59°51' E 024°50'1020.7
2018-Feb-11 13:30N 60°02' E 024°54'714.8
2018-Feb-11 13:00N 60°09' E 024°55'0 0.0
2018-Feb-11 12:30N 60°09' E 024°55'1 2.0
2018-Feb-11 12:00N 60°08' E 024°54'1020.1
2018-Feb-11 11:31N 59°58' E 024°54'1223.4
2018-Feb-11 11:01N 59°47' E 024°44'1223.4
2018-Feb-11 10:31N 59°36' E 024°41'918.5
2018-Feb-11 10:00N 59°27' E 024°46'0 0.7
2018-Feb-11 09:29N 59°27' E 024°46'0 0.9
2018-Feb-11 09:00N 59°27' E 024°47'1019.4
2018-Feb-11 08:31N 59°36' E 024°40'1121.9
2018-Feb-11 08:01N 59°46' E 024°47'1122.5
2018-Feb-11 07:30N 59°57' E 024°53'1020.7
2018-Feb-11 07:00N 60°07' E 024°54'2 3.2
2018-Feb-11 06:29N 60°09' E 024°55'0 0.0
2018-Feb-11 05:59N 60°09' E 024°55'0 0.0
2018-Feb-11 05:29N 60°09' E 024°55'0 0.0
2018-Feb-11 04:59N 60°09' E 024°55'0 0.0
2018-Feb-11 04:29N 60°09' E 024°55'0 0.0
2018-Feb-11 03:59N 60°09' E 024°55'0 0.0
2018-Feb-11 03:29N 60°09' E 024°55'0 0.0
2018-Feb-11 02:59N 60°09' E 024°55'0 0.0
2018-Feb-11 02:29N 60°09' E 024°55'0 0.0
2018-Feb-11 01:59N 60°09' E 024°55'0 0.0
2018-Feb-11 01:29N 60°09' E 024°55'0 0.0
2018-Feb-11 00:59N 60°09' E 024°55'0 0.0
2018-Feb-11 00:29N 60°09' E 024°55'0 0.0
2018-Feb-10 23:59N 60°09' E 024°55'0 0.0
2018-Feb-10 23:29N 60°09' E 024°55'0 0.0
2018-Feb-10 22:59N 60°09' E 024°55'0 0.0
2018-Feb-10 22:29N 60°09' E 024°55'0 0.0
2018-Feb-10 21:59N 60°09' E 024°55'0 0.0
2018-Feb-10 21:29N 60°09' E 024°55'0 0.0
2018-Feb-10 20:59N 60°09' E 024°55'0 0.0
2018-Feb-10 20:29N 60°09' E 024°55'0 0.0
2018-Feb-10 19:59N 60°09' E 024°55'0 0.0
2018-Feb-10 19:29N 60°09' E 024°55'0 0.0
2018-Feb-10 19:00N 60°09' E 024°55'4 8.7
2018-Feb-10 18:30N 60°05' E 024°54'1019.9
2018-Feb-10 18:00N 59°55' E 024°53'1019.8
2018-Feb-10 17:31N 59°45' E 024°48'1019.8
2018-Feb-10 17:01N 59°36' E 024°41'918.5
2018-Feb-10 16:31N 59°27' E 024°47'1 1.2
2018-Feb-10 16:00N 59°27' E 024°46'0 0.0
2018-Feb-10 15:30N 59°27' E 024°46'612.5
2018-Feb-10 15:00N 59°33' E 024°42'1020.0
2018-Feb-10 14:31N 59°43' E 024°41'1020.2
2018-Feb-10 14:00N 59°52' E 024°49'1020.4
2018-Feb-10 13:30N 60°02' E 024°54'714.2
2018-Feb-10 13:00N 60°09' E 024°55'0 0.0
2018-Feb-10 12:30N 60°09' E 024°55'1 1.9
2018-Feb-10 12:01N 60°08' E 024°54'1020.2
2018-Feb-10 11:31N 59°58' E 024°54'1224.0
2018-Feb-10 11:01N 59°46' E 024°49'1223.6
2018-Feb-10 10:31N 59°35' E 024°42'917.1
2018-Feb-10 10:00N 59°27' E 024°46'0 0.6
2018-Feb-10 09:28N 59°27' E 024°46'1 1.3
2018-Feb-10 09:01N 59°27' E 024°47'1121.1
2018-Feb-10 08:31N 59°37' E 024°40'1223.7
2018-Feb-10 08:01N 59°48' E 024°48'1223.9
2018-Feb-10 07:31N 59°60' E 024°54'918.9
2018-Feb-10 07:00N 60°09' E 024°55'0 0.1
2018-Feb-10 06:29N 60°09' E 024°55'0 0.6
2018-Feb-10 06:01N 60°09' E 024°55'918.1
2018-Feb-10 05:30N 59°60' E 024°54'1223.9
2018-Feb-10 05:01N 59°48' E 024°49'1223.5
2018-Feb-10 04:31N 59°37' E 024°41'1020.4
2018-Feb-10 04:00N 59°27' E 024°47'1 1.2
2018-Feb-10 03:30N 59°27' E 024°46'0 0.0
2018-Feb-10 03:00N 59°27' E 024°46'0 0.0
2018-Feb-10 02:30N 59°27' E 024°46'0 0.0
2018-Feb-10 02:00N 59°27' E 024°46'0 0.0
2018-Feb-10 01:30N 59°27' E 024°46'0 0.0
2018-Feb-10 01:00N 59°27' E 024°46'0 0.0
2018-Feb-10 00:30N 59°27' E 024°46'0 0.0
2018-Feb-10 00:00N 59°27' E 024°46'0 0.0
2018-Feb-09 23:30N 59°27' E 024°46'0 0.0
2018-Feb-09 23:00N 59°27' E 024°46'0 0.0
2018-Feb-09 22:45N 59°27' E 024°46'3 2.1
2018-Feb-09 21:31N 59°29' E 024°45'1224.2
2018-Feb-09 21:01N 59°41' E 024°41'1325.0
2018-Feb-09 20:30N 59°53' E 024°50'1224.0
2018-Feb-09 20:00N 60°05' E 024°54'4 8.9
2018-Feb-09 19:30N 60°09' E 024°55'0 0.0
2018-Feb-09 19:00N 60°09' E 024°55'2 4.0
2018-Feb-09 18:31N 60°07' E 024°54'1020.3
2018-Feb-09 18:01N 59°57' E 024°54'1122.3
2018-Feb-09 17:30N 59°46' E 024°48'1122.0
2018-Feb-09 17:00N 59°36' E 024°42'9 6.1
2018-Feb-09 15:31N 59°27' E 024°46'613.0
2018-Feb-09 15:01N 59°33' E 024°42'1020.9
2018-Feb-09 14:31N 59°43' E 024°46'1122.6
2018-Feb-09 14:00N 59°54' E 024°52'1122.0
2018-Feb-09 13:30N 60°05' E 024°53'4 4.1
2018-Feb-09 12:30N 60°09' E 024°55'0 0.6
2018-Feb-09 12:00N 60°09' E 024°55'816.7
2018-Feb-09 11:30N 60°00' E 024°54'2524.8
2018-Feb-09 10:30N 59°37' E 024°41'33 9.5
2018-Feb-09 07:00N 60°09' E 024°55'0 0.0
2018-Feb-09 06:30N 60°09' E 024°55'0 0.3
2018-Feb-09 06:01N 60°09' E 024°55'816.4
2018-Feb-09 05:30N 60°01' E 024°55'  
Track history (hours):
 
Tides and Currents Weather Stations Pressure Air Temp Water Temp Dewpoint Dewpoint Depression Visibility Wind Speed Wind Dir Waves Ship Positions

Finlandia

Last reported at 2018-Feb-19 04:00 UTC. Time now 2018-Feb-19 04:21 UTC.
Position N 59°27' E 024°47'.

Length 175 m; draft 7 m.

Type: Passenger vessel. MMSI: 230628000.

Date/timePositionNaut miles runAvg speedWind from/ knotsBaromVisibWave heightAir tempDewpointWater temp
2018-Feb-19 04:00N 59°27' E 024°47'0 0.8
2018-Feb-19 03:30N 59°27' E 024°46'0 0.0
2018-Feb-19 03:00N 59°27' E 024°46'0 0.0
2018-Feb-19 02:28N 59°27' E 024°46'0 0.0
2018-Feb-19 02:01N 59°27' E 024°46'0 0.0
2018-Feb-19 01:30N 59°27' E 024°46'0 0.0
2018-Feb-19 01:00N 59°27' E 024°46'0 0.0
2018-Feb-19 00:30N 59°27' E 024°46'0 0.0
2018-Feb-19 00:00N 59°27' E 024°46'0 0.0
2018-Feb-18 23:30N 59°27' E 024°46'0 0.0
2018-Feb-18 23:00N 59°27' E 024°46'0 0.0
2018-Feb-18 22:30N 59°27' E 024°46'0 0.0
2018-Feb-18 22:00N 59°27' E 024°46'2 4.4
2018-Feb-18 21:30N 59°29' E 024°46'1223.7
2018-Feb-18 21:01N 59°40' E 024°40'1224.4
2018-Feb-18 20:30N 59°52' E 024°49'1223.8
2018-Feb-18 20:00N 60°03' E 024°54'611.3
2018-Feb-18 19:31N 60°09' E 024°55'0 0.0
2018-Feb-18 19:01N 60°09' E 024°55'3 5.2
2018-Feb-18 18:30N 60°06' E 024°54'1121.8
2018-Feb-18 18:01N 59°56' E 024°53'1122.3
2018-Feb-18 17:31N 59°45' E 024°46'1121.8
2018-Feb-18 17:00N 59°34' E 024°43'815.2
2018-Feb-18 16:30N 59°27' E 024°46'0 0.6
2018-Feb-18 16:00N 59°27' E 024°46'0 0.0
2018-Feb-18 15:30N 59°27' E 024°46'511.0
2018-Feb-18 15:01N 59°32' E 024°43'1019.8
2018-Feb-18 14:31N 59°42' E 024°45'1121.2
2018-Feb-18 14:00N 59°52' E 024°50'1121.5
2018-Feb-18 13:30N 60°03' E 024°54'612.7
2018-Feb-18 13:00N 60°09' E 024°55'0 0.0
2018-Feb-18 12:28N 60°09' E 024°55'1 1.5
2018-Feb-18 12:01N 60°08' E 024°54'1020.2
2018-Feb-18 11:31N 59°58' E 024°54'1224.2
2018-Feb-18 11:01N 59°47' E 024°45'1224.2
2018-Feb-18 10:31N 59°35' E 024°42'917.5
2018-Feb-18 10:00N 59°27' E 024°46'0 0.2
2018-Feb-18 09:28N 59°27' E 024°46'1 1.5
2018-Feb-18 09:01N 59°27' E 024°47'1020.3
2018-Feb-18 08:31N 59°37' E 024°40'1121.4
2018-Feb-18 08:00N 59°47' E 024°48'1121.5
2018-Feb-18 07:30N 59°57' E 024°53'1019.6
2018-Feb-18 07:00N 60°07' E 024°54'2 4.3
2018-Feb-18 06:29N 60°09' E 024°55'0 0.0
2018-Feb-18 05:59N 60°09' E 024°55'0 0.0
2018-Feb-18 05:29N 60°09' E 024°55'0 0.0
2018-Feb-18 04:59N 60°09' E 024°55'0 0.0
2018-Feb-18 04:29N 60°09' E 024°55'0 0.0
2018-Feb-18 03:59N 60°09' E 024°55'0 0.0
2018-Feb-18 03:29N 60°09' E 024°55'0 0.0
2018-Feb-18 02:59N 60°09' E 024°55'0 0.0
2018-Feb-18 02:29N 60°09' E 024°55'0 0.0
2018-Feb-18 01:59N 60°09' E 024°55'0 0.0
2018-Feb-18 01:29N 60°09' E 024°55'0 0.0
2018-Feb-18 00:59N 60°09' E 024°55'0 0.0
2018-Feb-18 00:29N 60°09' E 024°55'0 0.0
2018-Feb-17 23:59N 60°09' E 024°55'0 0.0
2018-Feb-17 23:29N 60°09' E 024°55'0 0.0
2018-Feb-17 22:56N 60°09' E 024°55'0 0.0
2018-Feb-17 22:29N 60°09' E 024°55'0 0.0
2018-Feb-17 21:59N 60°09' E 024°55'0 0.0
2018-Feb-17 21:29N 60°09' E 024°55'0 0.0
2018-Feb-17 20:59N 60°09' E 024°55'0 0.0
2018-Feb-17 20:29N 60°09' E 024°55'0 0.0
2018-Feb-17 19:59N 60°09' E 024°55'0 0.0
2018-Feb-17 19:29N 60°09' E 024°55'0 0.0
2018-Feb-17 19:00N 60°09' E 024°55'4 8.4
2018-Feb-17 18:30N 60°05' E 024°54'1020.5
2018-Feb-17 18:01N 59°55' E 024°53'1121.0
2018-Feb-17 17:31N 59°45' E 024°47'1020.6
2018-Feb-17 17:01N 59°35' E 024°42'816.0
2018-Feb-17 16:30N 59°27' E 024°46'0 0.7
2018-Feb-17 16:00N 59°27' E 024°46'0 0.0
2018-Feb-17 15:30N 59°27' E 024°46'713.0
2018-Feb-17 15:00N 59°33' E 024°42'1020.4
2018-Feb-17 14:30N 59°43' E 024°46'1122.4
2018-Feb-17 14:01N 59°54' E 024°52'1122.8
2018-Feb-17 13:31N 60°05' E 024°54'4 7.4
2018-Feb-17 12:58N 60°09' E 024°55'0 0.0
2018-Feb-17 12:28N 60°09' E 024°55'0 1.0
2018-Feb-17 12:01N 60°09' E 024°54'1020.1
2018-Feb-17 11:30N 59°59' E 024°54'1325.4
2018-Feb-17 11:01N 59°47' E 024°45'1224.8
2018-Feb-17 10:31N 59°35' E 024°42'816.2
2018-Feb-17 10:00N 59°27' E 024°46'0 0.0
2018-Feb-17 09:28N 59°27' E 024°46'1 1.4
2018-Feb-17 09:01N 59°27' E 024°47'1019.9
2018-Feb-17 08:30N 59°36' E 024°40'1121.7
2018-Feb-17 08:01N 59°46' E 024°48'1122.0
2018-Feb-17 07:30N 59°57' E 024°53'1121.7
2018-Feb-17 07:00N 60°08' E 024°54'1 1.8
2018-Feb-17 06:28N 60°09' E 024°55'0 0.5
2018-Feb-17 06:00N 60°09' E 024°55'816.2
2018-Feb-17 05:31N 60°01' E 024°55'1223.2
2018-Feb-17 05:01N 59°49' E 024°51'1223.4
2018-Feb-17 04:31N 59°38' E 024°42'1121.7
2018-Feb-17 04:00N 59°28' E 024°46'1 1.6
2018-Feb-17 03:28N 59°27' E 024°46'0 0.0
2018-Feb-17 02:58N 59°27' E 024°46'0 0.0
2018-Feb-17 02:28N 59°27' E 024°46'0 0.0
2018-Feb-17 01:58N 59°27' E 024°46'0 0.0
2018-Feb-17 01:28N 59°27' E 024°46'0 0.0
2018-Feb-17 00:58N 59°27' E 024°46'0 0.0
2018-Feb-17 00:28N 59°27' E 024°46'0 0.0
2018-Feb-16 23:58N 59°27' E 024°46'0 0.0
2018-Feb-16 23:30N 59°27' E 024°46'0 0.0
2018-Feb-16 22:58N 59°27' E 024°46'0 0.0
2018-Feb-16 22:28N 59°27' E 024°46'0 0.0
2018-Feb-16 21:58N 59°27' E 024°46'4 8.4
2018-Feb-16 21:31N 59°30' E 024°44'1325.0
2018-Feb-16 21:01N 59°43' E 024°42'1326.2
2018-Feb-16 20:31N 59°55' E 024°52'1223.8
2018-Feb-16 20:00N 60°07' E 024°54'2 4.4
2018-Feb-16 19:30N 60°09' E 024°55'0 0.0
2018-Feb-16 19:00N 60°09' E 024°55'3 5.2
2018-Feb-16 18:31N 60°07' E 024°54'1019.8
2018-Feb-16 18:00N 59°57' E 024°53'1121.5
2018-Feb-16 17:30N 59°46' E 024°48'1121.5
2018-Feb-16 17:01N 59°36' E 024°41'918.9
2018-Feb-16 16:31N 59°27' E 024°47'0 0.9
2018-Feb-16 16:00N 59°27' E 024°46'0 0.0
2018-Feb-16 15:30N 59°27' E 024°46'713.9
2018-Feb-16 15:01N 59°33' E 024°42'1122.6
2018-Feb-16 14:31N 59°44' E 024°47'1224.2
2018-Feb-16 14:00N 59°56' E 024°53'1122.0
2018-Feb-16 13:30N 60°07' E 024°54'2 3.8
2018-Feb-16 12:58N 60°09' E 024°55'0 0.0
2018-Feb-16 12:28N 60°09' E 024°55'1 1.1
2018-Feb-16 12:01N 60°09' E 024°55'1021.0
2018-Feb-16 11:31N 59°58' E 024°54'1326.4
2018-Feb-16 11:01N 59°46' E 024°44'1326.1
2018-Feb-16 10:30N 59°33' E 024°44'612.1
2018-Feb-16 10:00N 59°27' E 024°46'0 0.0
2018-Feb-16 09:30N 59°27' E 024°46'2 3.4
2018-Feb-16 09:00N 59°28' E 024°46'1223.5
2018-Feb-16 08:31N 59°40' E 024°43'1224.5
2018-Feb-16 08:00N 59°52' E 024°50'1224.8
2018-Feb-16 07:30N 60°04' E 024°53'5 9.0
2018-Feb-16 06:57N 60°09' E 024°55'0 0.0
2018-Feb-16 06:30N 60°09' E 024°55'0 0.6
2018-Feb-16 06:00N 60°09' E 024°55'714.3
2018-Feb-16 05:31N 60°01' E 024°55'1223.7
2018-Feb-16 05:01N 59°50' E 024°48'1223.2
2018-Feb-16 04:31N 59°39' E 024°41'1122.6
2018-Feb-16 04:01N 59°28' E 024°46'1 2.6
2018-Feb-16 03:29N 59°27' E 024°46'0 0.0
2018-Feb-16 02:58N 59°27' E 024°46'0 0.0
2018-Feb-16 02:28N 59°27' E 024°46'0 0.0
2018-Feb-16 01:58N 59°27' E 024°46'0 0.0
2018-Feb-16 01:28N 59°27' E 024°46'0 0.0
2018-Feb-16 00:58N 59°27' E 024°46'0 0.0
2018-Feb-16 00:28N 59°27' E 024°46'0 0.0
2018-Feb-15 23:58N 59°27' E 024°46'0 0.0
2018-Feb-15 23:28N 59°27' E 024°46'0 0.0
2018-Feb-15 22:58N 59°27' E 024°46'0 0.0
2018-Feb-15 22:28N 59°27' E 024°46'0 0.0
2018-Feb-15 22:00N 59°27' E 024°46'714.4
2018-Feb-15 21:30N 59°34' E 024°42'1223.4
2018-Feb-15 21:01N 59°45' E 024°47'1325.2
2018-Feb-15 20:31N 59°57' E 024°53'1121.6
2018-Feb-15 20:01N 60°08' E 024°54'1 2.4
2018-Feb-15 19:30N 60°09' E 024°55'0 0.0
2018-Feb-15 19:00N 60°09' E 024°55'3 5.0
2018-Feb-15 18:30N 60°07' E 024°54'1019.6
2018-Feb-15 18:00N 59°57' E 024°56'1121.5
2018-Feb-15 17:30N 59°47' E 024°49'1121.9
2018-Feb-15 17:00N 59°37' E 024°41'1019.6
2018-Feb-15 16:30N 59°27' E 024°47'1 1.2
2018-Feb-15 16:00N 59°27' E 024°46'0 0.0
2018-Feb-15 15:30N 59°27' E 024°46'815.7
2018-Feb-15 15:01N 59°34' E 024°41'1122.1
2018-Feb-15 14:31N 59°45' E 024°47'1224.3
2018-Feb-15 14:00N 59°57' E 024°53'1121.7
2018-Feb-15 13:30N 60°07' E 024°54'2 3.3
2018-Feb-15 12:59N 60°09' E 024°55'0 0.0
2018-Feb-15 12:29N 60°09' E 024°55'1 1.6
2018-Feb-15 12:01N 60°08' E 024°54'1020.4
2018-Feb-15 11:31N 59°58' E 024°54'1224.2
2018-Feb-15 11:01N 59°47' E 024°45'1223.9
2018-Feb-15 10:31N 59°35' E 024°42'917.0
2018-Feb-15 10:00N 59°27' E 024°46'0 0.1
2018-Feb-15 09:29N 59°27' E 024°46'1 1.9
2018-Feb-15 09:01N 59°27' E 024°47'1020.9
2018-Feb-15 08:31N 59°37' E 024°40'1121.8
2018-Feb-15 08:01N 59°47' E 024°48'1122.9
2018-Feb-15 07:31N 59°58' E 024°53'1020.2
2018-Feb-15 07:00N 60°08' E 024°54'1 1.1
2018-Feb-15 06:23N 60°09' E 024°55'0 0.7
2018-Feb-15 06:00N 60°09' E 024°55'817.2
2018-Feb-15 05:31N 60°00' E 024°55'1223.7
2018-Feb-15 05:01N 59°49' E 024°48'1223.9
2018-Feb-15 04:31N 59°37' E 024°42'1121.2
2018-Feb-15 04:00N 59°27' E 024°47'1 1.2
2018-Feb-15 03:30N 59°27' E 024°46'0 0.0
2018-Feb-15 03:00N 59°27' E 024°46'0 0.0
2018-Feb-15 02:30N 59°27' E 024°46'0 0.0
2018-Feb-15 02:00N 59°27' E 024°46'0 0.0
2018-Feb-15 01:30N 59°27' E 024°46'0 0.0
2018-Feb-15 01:00N 59°27' E 024°46'0 0.0
2018-Feb-15 00:30N 59°27' E 024°46'0 0.0
2018-Feb-15 00:00N 59°27' E 024°46'0 0.0
2018-Feb-14 23:30N 59°27' E 024°46'0 0.0
2018-Feb-14 23:00N 59°27' E 024°46'0 0.0
2018-Feb-14 22:30N 59°27' E 024°46'0 0.0
2018-Feb-14 22:00N 59°27' E 024°46'4 7.4
2018-Feb-14 21:31N 59°30' E 024°44'1122.2
2018-Feb-14 21:01N 59°41' E 024°41'1122.6
2018-Feb-14 20:31N 59°52' E 024°48'1122.3
2018-Feb-14 20:00N 60°03' E 024°54'612.9
2018-Feb-14 19:30N 60°09' E 024°55'0 0.0
2018-Feb-14 18:58N 60°09' E 024°55'3 5.9
2018-Feb-14 18:30N 60°06' E 024°54'1019.9
2018-Feb-14 18:00N 59°56' E 024°54'1121.6
2018-Feb-14 17:31N 59°46' E 024°48'1121.6
2018-Feb-14 17:00N 59°36' E 024°41'918.4
2018-Feb-14 16:30N 59°27' E 024°47'0 1.0
2018-Feb-14 15:59N 59°27' E 024°46'0 0.0
2018-Feb-14 15:30N 59°27' E 024°46'714.5
2018-Feb-14 15:01N 59°34' E 024°42'1121.4
2018-Feb-14 14:31N 59°44' E 024°47'1122.5
2018-Feb-14 14:01N 59°55' E 024°52'1121.7
2018-Feb-14 13:31N 60°06' E 024°54'3 6.4
2018-Feb-14 12:58N 60°09' E 024°55'0 0.0
2018-Feb-14 12:28N 60°09' E 024°55'0 1.0
2018-Feb-14 12:00N 60°09' E 024°54'917.8
2018-Feb-14 11:31N 59°60' E 024°55'1325.3
2018-Feb-14 11:01N 59°48' E 024°46'1225.0
2018-Feb-14 10:31N 59°36' E 024°41'918.5
2018-Feb-14 10:00N 59°27' E 024°46'0 0.4
2018-Feb-14 09:30N 59°27' E 024°46'0 1.0
2018-Feb-14 09:00N 59°27' E 024°47'1020.0
2018-Feb-14 08:31N 59°36' E 024°40'1122.6
2018-Feb-14 08:01N 59°47' E 024°48'1223.1
2018-Feb-14 07:30N 59°58' E 024°53'1020.4
2018-Feb-14 07:00N 60°08' E 024°54'1 1.7
2018-Feb-14 06:29N 60°09' E 024°55'0 0.9
2018-Feb-14 06:00N 60°09' E 024°55'917.2
2018-Feb-14 05:30N 60°00' E 024°55'1224.0
2018-Feb-14 05:01N 59°49' E 024°49'1223.9
2018-Feb-14 04:31N 59°37' E 024°42'1020.8
2018-Feb-14 04:01N 59°27' E 024°47'1 1.2
2018-Feb-14 03:28N 59°27' E 024°46'0 0.0
2018-Feb-14 03:01N 59°27' E 024°46'0 0.0
2018-Feb-14 02:28N 59°27' E 024°46'0 0.0
2018-Feb-14 01:57N 59°27' E 024°46'0 0.0
2018-Feb-14 01:28N 59°27' E 024°46'0 0.0
2018-Feb-14 01:01N 59°27' E 024°46'0 0.0
2018-Feb-14 00:28N 59°27' E 024°46'0 0.0
2018-Feb-14 00:00N 59°27' E 024°46'0 0.0
2018-Feb-13 23:30N 59°27' E 024°46'0 0.0
2018-Feb-13 23:01N 59°27' E 024°46'0 0.0
2018-Feb-13 22:28N 59°27' E 024°46'0 0.0
2018-Feb-13 21:58N 59°27' E 024°46'2 4.7
2018-Feb-13 21:31N 59°29' E 024°46'1122.0
2018-Feb-13 21:01N 59°40' E 024°42'1223.3
2018-Feb-13 20:31N 59°51' E 024°50'1223.4
2018-Feb-13 20:01N 60°02' E 024°54'713.7
2018-Feb-13 19:31N 60°09' E 024°55'0 0.0
2018-Feb-13 19:00N 60°09' E 024°55'3 6.6
2018-Feb-13 18:30N 60°06' E 024°54'1121.7
2018-Feb-13 18:01N 59°55' E 024°52'1223.6
2018-Feb-13 17:31N 59°44' E 024°47'1122.1
2018-Feb-13 17:01N 59°33' E 024°44'612.0
2018-Feb-13 16:30N 59°27' E 024°46'0 0.0
2018-Feb-13 15:59N 59°27' E 024°46'0 0.0
2018-Feb-13 15:31N 59°27' E 024°46'713.3
2018-Feb-13 15:00N 59°33' E 024°42'1121.3
2018-Feb-13 14:30N 59°44' E 024°42'1122.0
2018-Feb-13 14:00N 59°54' E 024°52'1121.4
2018-Feb-13 13:30N 60°04' E 024°54'5 9.6
2018-Feb-13 13:00N 60°09' E 024°55'0 0.0
2018-Feb-13 12:30N 60°09' E 024°55'0 0.9
2018-Feb-13 12:00N 60°09' E 024°54'918.0
2018-Feb-13 11:31N 59°60' E 024°54'1224.9
2018-Feb-13 11:01N 59°48' E 024°49'1325.1
2018-Feb-13 10:30N 59°36' E 024°41'918.3
2018-Feb-13 10:00N 59°27' E 024°46'0 0.4
2018-Feb-13 09:27N 59°27' E 024°46'1 1.4
2018-Feb-13 09:00N 59°27' E 024°47'1020.6
2018-Feb-13 08:31N 59°37' E 024°40'1223.1
2018-Feb-13 08:00N 59°47' E 024°49'1223.2
2018-Feb-13 07:30N 59°59' E 024°54'1019.8
2018-Feb-13 07:01N 60°09' E 024°54'1 1.2
2018-Feb-13 06:30N 60°09' E 024°55'0 0.8
2018-Feb-13 06:00N 60°09' E 024°55'816.9
2018-Feb-13 05:30N 60°01' E 024°55'1224.1
2018-Feb-13 05:01N 59°49' E 024°50'1224.1
2018-Feb-13 04:30N 59°37' E 024°42'1121.2
2018-Feb-13 04:00N 59°27' E 024°47'1 1.2
2018-Feb-13 03:29N 59°27' E 024°46'0 0.0
2018-Feb-13 02:59N 59°27' E 024°46'0 0.0
2018-Feb-13 02:29N 59°27' E 024°46'0 0.0
2018-Feb-13 01:59N 59°27' E 024°46'0 0.0
2018-Feb-13 01:29N 59°27' E 024°46'0 0.0
2018-Feb-13 00:59N 59°27' E 024°46'0 0.0
2018-Feb-13 00:29N 59°27' E 024°46'0 0.0
2018-Feb-12 23:59N 59°27' E 024°46'0 0.0
2018-Feb-12 23:29N 59°27' E 024°46'0 0.0
2018-Feb-12 22:59N 59°27' E 024°46'0 0.0
2018-Feb-12 22:29N 59°27' E 024°46'0 0.0
2018-Feb-12 21:59N 59°27' E 024°46'3 5.5
2018-Feb-12 21:31N 59°29' E 024°45'1122.4
2018-Feb-12 21:01N 59°40' E 024°43'1224.1
2018-Feb-12 20:31N 59°52' E 024°51'1224.1
2018-Feb-12 20:00N 60°04' E 024°54'510.6
2018-Feb-12 19:30N 60°09' E 024°55'0 0.0
2018-Feb-12 19:01N 60°09' E 024°55'2 4.8
2018-Feb-12 18:30N 60°07' E 024°54'1020.2
2018-Feb-12 18:00N 59°57' E 024°54'1122.2
2018-Feb-12 17:30N 59°46' E 024°48'1122.1
2018-Feb-12 17:00N 59°35' E 024°42'917.5
2018-Feb-12 16:31N 59°27' E 024°46'0 0.4
2018-Feb-12 16:00N 59°27' E 024°46'0 0.0
2018-Feb-12 15:30N 59°27' E 024°46'611.9
2018-Feb-12 15:01N 59°32' E 024°43'1019.5
2018-Feb-12 14:31N 59°42' E 024°45'1121.5
2018-Feb-12 14:00N 59°53' E 024°51'1121.3
2018-Feb-12 13:31N 60°03' E 024°54'612.2
2018-Feb-12 13:01N 60°09' E 024°55'0 0.0
2018-Feb-12 12:27N 60°09' E 024°55'0 1.0
2018-Feb-12 12:00N 60°09' E 024°55'1019.1
2018-Feb-12 11:30N 59°59' E 024°54'1223.5
2018-Feb-12 11:01N 59°48' E 024°45'1223.5
2018-Feb-12 10:31N 59°37' E 024°41'1020.3
2018-Feb-12 10:01N 59°27' E 024°47'1 1.1
2018-Feb-12 09:29N 59°27' E 024°46'0 0.7
2018-Feb-12 09:00N 59°27' E 024°46'1019.6
2018-Feb-12 08:31N 59°36' E 024°40'1223.6
2018-Feb-12 08:01N 59°48' E 024°45'1224.2
2018-Feb-12 07:31N 59°59' E 024°54'1019.9
2018-Feb-12 07:00N 60°09' E 024°55'0 0.6
2018-Feb-12 06:29N 60°09' E 024°55'1 1.5
2018-Feb-12 06:01N 60°08' E 024°54'1020.1
2018-Feb-12 05:31N 59°58' E 024°54'1223.6
2018-Feb-12 05:01N 59°47' E 024°49'1223.5
2018-Feb-12 04:31N 59°36' E 024°42'918.3
2018-Feb-12 04:00N 59°27' E 024°46'0 0.7
2018-Feb-12 03:28N 59°27' E 024°46'0 0.0
2018-Feb-12 02:58N 59°27' E 024°46'0 0.0
2018-Feb-12 02:28N 59°27' E 024°46'0 0.0
2018-Feb-12 01:58N 59°27' E 024°46'0 0.0
2018-Feb-12 01:28N 59°27' E 024°46'0 0.0
2018-Feb-12 00:58N 59°27' E 024°46'0 0.0
2018-Feb-12 00:28N 59°27' E 024°46'0 0.0
2018-Feb-11 23:58N 59°27' E 024°46'0 0.0
2018-Feb-11 23:28N 59°27' E 024°46'0 0.0
2018-Feb-11 22:58N 59°27' E 024°46'0 0.0
2018-Feb-11 22:28N 59°27' E 024°46'0 0.0
2018-Feb-11 21:58N 59°27' E 024°46'2 5.5
2018-Feb-11 21:31N 59°29' E 024°45'1122.4
2018-Feb-11 21:01N 59°40' E 024°43'1223.9
2018-Feb-11 20:30N 59°52' E 024°51'1223.6
2018-Feb-11 20:01N 60°03' E 024°54'611.5
2018-Feb-11 19:30N 60°09' E 024°55'0 0.0
2018-Feb-11 19:00N 60°09' E 024°55'3 7.1
2018-Feb-11 18:30N 60°06' E 024°54'1019.8
2018-Feb-11 18:00N 59°56' E 024°53'1020.2
2018-Feb-11 17:31N 59°46' E 024°48'1020.8
2018-Feb-11 17:01N 59°36' E 024°41'1019.4
2018-Feb-11 16:31N 59°27' E 024°46'0 0.7
2018-Feb-11 15:58N 59°27' E 024°46'0 0.0
2018-Feb-11 15:29N 59°27' E 024°46'612.0
2018-Feb-11 15:01N 59°32' E 024°43'1019.4
2018-Feb-11 14:30N 59°42' E 024°45'1020.1
2018-Feb-11 14:00N 59°51' E 024°50'1020.7
2018-Feb-11 13:30N 60°02' E 024°54'714.8
2018-Feb-11 13:00N 60°09' E 024°55'0 0.0
2018-Feb-11 12:30N 60°09' E 024°55'1 2.0
2018-Feb-11 12:00N 60°08' E 024°54'1020.1
2018-Feb-11 11:31N 59°58' E 024°54'1223.4
2018-Feb-11 11:01N 59°47' E 024°44'1223.4
2018-Feb-11 10:31N 59°36' E 024°41'918.5
2018-Feb-11 10:00N 59°27' E 024°46'0 0.7
2018-Feb-11 09:29N 59°27' E 024°46'0 0.9
2018-Feb-11 09:00N 59°27' E 024°47'1019.4
2018-Feb-11 08:31N 59°36' E 024°40'1121.9
2018-Feb-11 08:01N 59°46' E 024°47'1122.5
2018-Feb-11 07:30N 59°57' E 024°53'1020.7
2018-Feb-11 07:00N 60°07' E 024°54'2 3.2
2018-Feb-11 06:29N 60°09' E 024°55'0 0.0
2018-Feb-11 05:59N 60°09' E 024°55'0 0.0
2018-Feb-11 05:29N 60°09' E 024°55'0 0.0
2018-Feb-11 04:59N 60°09' E 024°55'0 0.0
2018-Feb-11 04:29N 60°09' E 024°55'0 0.0
2018-Feb-11 03:59N 60°09' E 024°55'0 0.0
2018-Feb-11 03:29N 60°09' E 024°55'0 0.0
2018-Feb-11 02:59N 60°09' E 024°55'0 0.0
2018-Feb-11 02:29N 60°09' E 024°55'0 0.0
2018-Feb-11 01:59N 60°09' E 024°55'0 0.0
2018-Feb-11 01:29N 60°09' E 024°55'0 0.0
2018-Feb-11 00:59N 60°09' E 024°55'0 0.0
2018-Feb-11 00:29N 60°09' E 024°55'0 0.0
2018-Feb-10 23:59N 60°09' E 024°55'0 0.0
2018-Feb-10 23:29N 60°09' E 024°55'0 0.0
2018-Feb-10 22:59N 60°09' E 024°55'0 0.0
2018-Feb-10 22:29N 60°09' E 024°55'0 0.0
2018-Feb-10 21:59N 60°09' E 024°55'0 0.0
2018-Feb-10 21:29N 60°09' E 024°55'0 0.0
2018-Feb-10 20:59N 60°09' E 024°55'0 0.0
2018-Feb-10 20:29N 60°09' E 024°55'0 0.0
2018-Feb-10 19:59N 60°09' E 024°55'0 0.0
2018-Feb-10 19:29N 60°09' E 024°55'0 0.0
2018-Feb-10 19:00N 60°09' E 024°55'4 8.7
2018-Feb-10 18:30N 60°05' E 024°54'1019.9
2018-Feb-10 18:00N 59°55' E 024°53'1019.8
2018-Feb-10 17:31N 59°45' E 024°48'1019.8
2018-Feb-10 17:01N 59°36' E 024°41'918.5
2018-Feb-10 16:31N 59°27' E 024°47'1 1.2
2018-Feb-10 16:00N 59°27' E 024°46'0 0.0
2018-Feb-10 15:30N 59°27' E 024°46'612.5
2018-Feb-10 15:00N 59°33' E 024°42'1020.0
2018-Feb-10 14:31N 59°43' E 024°41'1020.2
2018-Feb-10 14:00N 59°52' E 024°49'1020.4
2018-Feb-10 13:30N 60°02' E 024°54'714.2
2018-Feb-10 13:00N 60°09' E 024°55'0 0.0
2018-Feb-10 12:30N 60°09' E 024°55'1 1.9
2018-Feb-10 12:01N 60°08' E 024°54'1020.2
2018-Feb-10 11:31N 59°58' E 024°54'1224.0
2018-Feb-10 11:01N 59°46' E 024°49'1223.6
2018-Feb-10 10:31N 59°35' E 024°42'917.1
2018-Feb-10 10:00N 59°27' E 024°46'0 0.6
2018-Feb-10 09:28N 59°27' E 024°46'1 1.3
2018-Feb-10 09:01N 59°27' E 024°47'1121.1
2018-Feb-10 08:31N 59°37' E 024°40'1223.7
2018-Feb-10 08:01N 59°48' E 024°48'1223.9
2018-Feb-10 07:31N 59°60' E 024°54'918.9
2018-Feb-10 07:00N 60°09' E 024°55'0 0.1
2018-Feb-10 06:29N 60°09' E 024°55'0 0.6
2018-Feb-10 06:01N 60°09' E 024°55'918.1
2018-Feb-10 05:30N 59°60' E 024°54'1223.9
2018-Feb-10 05:01N 59°48' E 024°49'1223.5
2018-Feb-10 04:31N 59°37' E 024°41'1020.4
2018-Feb-10 04:00N 59°27' E 024°47'1 1.2
2018-Feb-10 03:30N 59°27' E 024°46'0 0.0
2018-Feb-10 03:00N 59°27' E 024°46'0 0.0
2018-Feb-10 02:30N 59°27' E 024°46'0 0.0
2018-Feb-10 02:00N 59°27' E 024°46'0 0.0
2018-Feb-10 01:30N 59°27' E 024°46'0 0.0
2018-Feb-10 01:00N 59°27' E 024°46'0 0.0
2018-Feb-10 00:30N 59°27' E 024°46'0 0.0
2018-Feb-10 00:00N 59°27' E 024°46'0 0.0
2018-Feb-09 23:30N 59°27' E 024°46'0 0.0
2018-Feb-09 23:00N 59°27' E 024°46'0 0.0
2018-Feb-09 22:45N 59°27' E 024°46'3 2.1
2018-Feb-09 21:31N 59°29' E 024°45'1224.2
2018-Feb-09 21:01N 59°41' E 024°41'1325.0
2018-Feb-09 20:30N 59°53' E 024°50'1224.0
2018-Feb-09 20:00N 60°05' E 024°54'4 8.9
2018-Feb-09 19:30N 60°09' E 024°55'0 0.0
2018-Feb-09 19:00N 60°09' E 024°55'2 4.0
2018-Feb-09 18:31N 60°07' E 024°54'1020.3
2018-Feb-09 18:01N 59°57' E 024°54'1122.3
2018-Feb-09 17:30N 59°46' E 024°48'1122.0
2018-Feb-09 17:00N 59°36' E 024°42'9 6.1
2018-Feb-09 15:31N 59°27' E 024°46'613.0
2018-Feb-09 15:01N 59°33' E 024°42'1020.9
2018-Feb-09 14:31N 59°43' E 024°46'1122.6
2018-Feb-09 14:00N 59°54' E 024°52'1122.0
2018-Feb-09 13:30N 60°05' E 024°53'4 4.1
2018-Feb-09 12:30N 60°09' E 024°55'0 0.6
2018-Feb-09 12:00N 60°09' E 024°55'816.7
2018-Feb-09 11:30N 60°00' E 024°54'2524.8
2018-Feb-09 10:30N 59°37' E 024°41'33 9.5
2018-Feb-09 07:00N 60°09' E 024°55'0 0.0
2018-Feb-09 06:30N 60°09' E 024°55'0 0.3
2018-Feb-09 06:01N 60°09' E 024°55'816.4
2018-Feb-09 05:30N 60°01' E 024°55'  

Dump ship's entire track history